createdAt,value
2018-09-12T00:01:09.802Z,80.18
2018-09-12T00:03:39.570Z,81.62
2018-09-12T00:06:09.100Z,81.48
2018-09-12T00:08:38.422Z,82.16
2018-09-12T00:11:07.875Z,82.71
2018-09-12T00:13:37.847Z,83.86
2018-09-12T00:16:07.287Z,84.11
2018-09-12T00:18:36.549Z,83.38
2018-09-12T00:21:06.757Z,83.71
2018-09-12T00:23:35.955Z,83.55
2018-09-12T00:26:05.522Z,83.97
2018-09-12T00:28:34.982Z,84.06
2018-09-12T00:31:04.561Z,84.10
2018-09-12T00:33:34.419Z,84.71
2018-09-12T00:36:04.158Z,84.77
2018-09-12T00:38:33.687Z,85.17
2018-09-12T00:41:03.258Z,84.99
2018-09-12T00:43:33.608Z,84.92
2018-09-12T00:46:03.809Z,85.55
2018-09-12T00:48:33.735Z,85.79
2018-09-12T00:51:03.595Z,86.10
2018-09-12T00:53:33.338Z,86.33
2018-09-12T00:56:03.785Z,86.82
2018-09-12T00:58:33.594Z,85.80
2018-09-12T01:01:03.982Z,85.95
2018-09-12T01:03:34.221Z,85.91
2018-09-12T01:06:04.890Z,86.99
2018-09-12T01:08:34.658Z,87.24
2018-09-12T01:11:04.538Z,87.82
2018-09-12T01:13:34.107Z,88.07
2018-09-12T01:16:04.060Z,88.54
2018-09-12T01:18:34.319Z,89.01
2018-09-12T01:21:04.508Z,89.56
2018-09-12T01:23:34.750Z,89.12
2018-09-12T01:26:04.468Z,88.53
2018-09-12T01:28:34.158Z,89.12
2018-09-12T01:31:04.298Z,88.90
2018-09-12T01:33:34.742Z,88.90
2018-09-12T01:36:04.126Z,88.90
2018-09-12T01:38:34.100Z,88.82
2018-09-12T01:41:03.699Z,89.00
2018-09-12T01:43:33.075Z,89.06
2018-09-12T01:46:02.552Z,89.33
2018-09-12T01:48:32.871Z,89.77
2018-09-12T01:51:03.544Z,89.27
2018-09-12T01:53:33.070Z,89.62
2018-09-12T01:56:02.427Z,90.34
2018-09-12T01:58:32.532Z,89.95
2018-09-12T02:01:02.012Z,90.11
2018-09-12T02:03:31.574Z,89.96
2018-09-12T02:06:01.062Z,91.18
2018-09-12T02:08:30.746Z,90.61
2018-09-12T02:11:00.255Z,90.85
2018-09-12T02:13:29.771Z,91.75
2018-09-12T02:15:59.279Z,91.80
2018-09-12T02:18:29.007Z,92.47
2018-09-12T02:20:58.502Z,93.01
2018-09-12T02:23:27.991Z,91.22
2018-09-12T02:25:57.695Z,91.89
2018-09-12T02:28:27.626Z,91.68
2018-09-12T02:30:57.470Z,92.42
2018-09-12T02:33:27.501Z,92.22
2018-09-12T02:36:02.046Z,92.46
2018-09-12T02:38:31.272Z,92.97
2018-09-12T02:41:00.719Z,91.85
2018-09-12T02:43:30.182Z,92.27
2018-09-12T02:45:59.677Z,92.77
2018-09-12T02:48:29.611Z,93.43
2018-09-12T02:50:59.108Z,93.92
2018-09-12T02:53:28.794Z,93.48
2018-09-12T02:55:58.362Z,93.30
2018-09-12T02:58:27.655Z,93.48
2018-09-12T03:00:57.103Z,92.96
2018-09-12T03:03:26.668Z,93.36
2018-09-12T03:05:56.567Z,93.84
2018-09-12T03:08:26.093Z,93.89
2018-09-12T03:10:55.726Z,94.21
2018-09-12T03:13:25.891Z,94.67
2018-09-12T03:15:56.155Z,95.46
2018-09-12T03:18:26.354Z,95.17
2018-09-12T03:20:56.219Z,95.26
2018-09-12T03:23:25.894Z,95.66
2018-09-12T03:25:55.942Z,94.92
2018-09-12T03:28:25.211Z,95.78
2018-09-12T03:30:55.872Z,95.00
2018-09-12T03:33:25.416Z,95.25
2018-09-12T03:35:54.882Z,95.11
2018-09-12T03:38:24.915Z,95.46
2018-09-12T03:40:54.523Z,95.29
2018-09-12T03:43:24.446Z,95.90
2018-09-12T03:45:53.940Z,96.17
2018-09-12T03:48:23.461Z,96.06
2018-09-12T03:50:52.997Z,95.51
2018-09-12T03:53:23.090Z,95.05
2018-09-12T03:55:52.775Z,94.81
2018-09-12T03:58:22.618Z,94.93
2018-09-12T04:00:52.159Z,95.33
2018-09-12T04:03:22.099Z,95.55
2018-09-12T04:05:51.793Z,96.76
2018-09-12T04:08:21.529Z,97.16
2018-09-12T04:10:51.047Z,98.04
2018-09-12T04:13:20.776Z,97.91
2018-09-12T04:15:50.467Z,97.41
2018-09-12T04:18:20.365Z,98.00
2018-09-12T04:20:50.744Z,97.17
2018-09-12T04:23:20.736Z,97.34
2018-09-12T04:25:50.957Z,97.08
2018-09-12T04:28:21.065Z,97.30
2018-09-12T04:30:50.567Z,97.77
2018-09-12T04:33:20.331Z,96.67
2018-09-12T04:35:49.834Z,97.28
2018-09-12T04:38:19.763Z,97.88
2018-09-12T04:40:49.077Z,97.66
2018-09-12T04:43:18.967Z,97.10
2018-09-12T04:45:48.878Z,97.35
2018-09-12T04:48:18.316Z,96.74
2018-09-12T04:50:48.300Z,96.90
2018-09-12T04:53:17.503Z,96.54
2018-09-12T04:55:47.027Z,96.39
2018-09-12T04:58:16.518Z,95.76
2018-09-12T05:00:46.494Z,96.77
2018-09-12T05:03:16.010Z,96.51
2018-09-12T05:05:45.838Z,96.38
2018-09-12T05:08:15.198Z,96.59
2018-09-12T05:10:44.668Z,96.36
2018-09-12T05:13:14.182Z,96.30
2018-09-12T05:15:43.681Z,96.10
2018-09-12T05:18:13.466Z,95.93
2018-09-12T05:20:42.886Z,96.01
2018-09-12T05:23:12.443Z,95.84
2018-09-12T05:25:41.903Z,96.04
2018-09-12T05:28:11.430Z,95.98
2018-09-12T05:30:41.983Z,95.81
2018-09-12T05:33:11.683Z,96.24
2018-09-12T05:35:41.198Z,96.59
2018-09-12T05:38:10.927Z,96.86
2018-09-12T05:40:40.379Z,95.96
2018-09-12T05:43:10.701Z,95.77
2018-09-12T05:45:40.723Z,95.43
2018-09-12T05:48:10.555Z,94.85
2018-09-12T05:50:40.243Z,94.99
2018-09-12T05:53:10.262Z,95.48
2018-09-12T05:55:39.666Z,95.48
2018-09-12T05:58:09.404Z,94.61
2018-09-12T06:00:38.881Z,95.23
2018-09-12T06:03:08.509Z,94.16
2018-09-12T06:05:38.555Z,93.76
2018-09-12T06:08:08.450Z,93.14
2018-09-12T06:10:38.406Z,92.51
2018-09-12T06:13:08.201Z,92.51
2018-09-12T06:15:38.418Z,92.98
2018-09-12T06:18:08.503Z,92.89
2018-09-12T06:20:38.431Z,92.04
2018-09-12T06:23:08.541Z,91.74
2018-09-12T06:25:37.974Z,91.73
2018-09-12T06:28:07.358Z,91.12
2018-09-12T06:30:37.295Z,89.93
2018-09-12T06:33:06.730Z,89.33
2018-09-12T06:35:36.859Z,88.44
2018-09-12T06:38:06.360Z,88.67
2018-09-12T06:40:36.139Z,88.61
2018-09-12T06:43:06.530Z,88.08
2018-09-12T06:45:36.356Z,86.87
2018-09-12T06:48:06.151Z,86.39
2018-09-12T06:50:35.802Z,86.36
2018-09-12T06:53:05.279Z,86.53
2018-09-12T06:55:34.943Z,86.03
2018-09-12T06:58:04.482Z,85.45
2018-09-12T07:00:34.488Z,85.83
2018-09-12T07:03:03.975Z,85.15
2018-09-12T07:05:33.987Z,85.56
2018-09-12T07:08:03.560Z,85.50
2018-09-12T07:10:32.799Z,85.09
2018-09-12T07:13:03.103Z,84.93
2018-09-12T07:15:32.629Z,85.07
2018-09-12T07:18:02.541Z,84.30
2018-09-12T07:20:32.670Z,84.75
2018-09-12T07:23:02.195Z,83.04
2018-09-12T07:25:31.674Z,83.27
2018-09-12T07:28:00.991Z,83.29
2018-09-12T07:30:30.717Z,82.96
2018-09-12T07:33:00.830Z,81.28
2018-09-12T07:35:30.308Z,80.10
2018-09-12T07:38:00.042Z,80.77
2018-09-12T07:40:29.523Z,80.39
2018-09-12T07:43:00.022Z,79.77
2018-09-12T07:45:29.798Z,77.78
2018-09-12T07:47:59.891Z,75.47
2018-09-12T07:50:29.427Z,74.08
2018-09-12T07:52:58.735Z,72.81
2018-09-12T07:55:28.187Z,71.04
2018-09-12T07:57:57.927Z,71.83
2018-09-12T08:00:28.102Z,71.09
2018-09-12T08:02:57.807Z,69.43
2018-09-12T08:05:27.615Z,70.87
2018-09-12T08:07:57.311Z,69.04
2018-09-12T08:10:27.069Z,65.23
2018-09-12T08:12:56.820Z,64.50
2018-09-12T08:15:26.131Z,63.44
2018-09-12T08:17:55.578Z,62.86
2018-09-12T08:20:25.123Z,61.66
2018-09-12T08:22:54.870Z,59.50
2018-09-12T08:25:24.754Z,58.89
2018-09-12T08:27:54.206Z,57.43
2018-09-12T08:30:23.795Z,56.36
2018-09-12T08:32:53.464Z,54.75
2018-09-12T08:35:23.136Z,56.80
2018-09-12T08:37:52.843Z,57.95
2018-09-12T08:40:22.330Z,57.71
2018-09-12T08:42:51.852Z,54.30
2018-09-12T08:45:21.529Z,53.18
2018-09-12T08:47:50.821Z,53.81
2018-09-12T08:50:23.883Z,51.41
2018-09-12T08:52:54.765Z,51.61
2018-09-12T08:55:24.566Z,57.40
2018-09-12T08:57:54.333Z,56.55
2018-09-12T09:00:28.304Z,58.33
2018-09-12T09:02:57.741Z,60.48
2018-09-12T09:05:27.191Z,59.83
2018-09-12T09:07:56.966Z,57.86
2018-09-12T09:10:26.889Z,58.58
2018-09-12T09:12:57.620Z,57.73
2018-09-12T09:15:28.146Z,60.20
2018-09-12T09:17:57.402Z,58.70
2018-09-12T09:20:26.938Z,58.30
2018-09-12T09:22:56.434Z,59.27
2018-09-12T09:25:25.956Z,57.33
2018-09-12T09:27:55.471Z,53.13
2018-09-12T09:30:30.507Z,50.22
2018-09-12T09:33:00.001Z,47.89
2018-09-12T09:35:30.637Z,46.35
2018-09-12T09:38:00.044Z,48.24
2018-09-12T09:40:30.180Z,49.13
2018-09-12T09:42:59.605Z,47.91
2018-09-12T09:45:29.723Z,47.14
2018-09-12T09:47:59.138Z,43.55
2018-09-12T09:50:29.146Z,44.33
2018-09-12T09:52:59.366Z,44.51
2018-09-12T09:55:29.218Z,49.33
2018-09-12T09:57:58.927Z,49.21
2018-09-12T10:00:33.816Z,49.00
2018-09-12T10:03:08.694Z,49.79
2018-09-12T10:05:43.293Z,49.50
2018-09-12T10:08:18.023Z,46.82
2018-09-12T10:10:48.489Z,48.63
2018-09-12T10:13:18.510Z,47.04
2018-09-12T10:15:47.900Z,46.62
2018-09-12T10:18:18.863Z,46.73
2018-09-12T10:20:48.865Z,51.44
2018-09-12T10:23:21.024Z,51.94
2018-09-12T10:25:51.072Z,51.09
2018-09-12T10:28:21.097Z,51.22
2018-09-12T10:30:51.250Z,50.38
2018-09-12T10:33:21.297Z,53.32
2018-09-12T10:35:50.815Z,51.59
2018-09-12T10:38:20.302Z,49.44
2018-09-12T10:40:49.843Z,48.74
2018-09-12T10:43:20.106Z,49.06
2018-09-12T10:45:50.805Z,47.74
2018-09-12T10:48:21.170Z,49.30
2018-09-12T10:50:51.156Z,48.03
2018-09-12T10:53:21.426Z,48.43
2018-09-12T10:55:50.689Z,46.59
2018-09-12T10:58:20.870Z,45.26
2018-09-12T11:00:50.334Z,44.62
2018-09-12T11:03:20.066Z,47.62
2018-09-12T11:05:49.548Z,47.66
2018-09-12T11:08:23.434Z,46.95
2018-09-12T11:10:52.687Z,48.38
2018-09-12T11:13:22.608Z,46.83
2018-09-12T11:15:52.474Z,47.23
2018-09-12T11:18:22.322Z,47.15
2018-09-12T11:20:52.478Z,45.89
2018-09-12T11:23:22.415Z,44.23
2018-09-12T11:25:52.129Z,42.88
2018-09-12T11:28:21.675Z,41.68
2018-09-12T11:30:51.863Z,42.62
2018-09-12T11:33:21.484Z,42.58
2018-09-12T11:35:50.989Z,43.61
2018-09-12T11:38:20.313Z,41.51
2018-09-12T11:40:49.752Z,45.73
2018-09-12T11:43:19.120Z,44.46
2018-09-12T11:45:48.610Z,43.55
2018-09-12T11:48:18.743Z,42.22
2018-09-12T11:50:48.450Z,40.61
2018-09-12T11:53:18.160Z,39.53
2018-09-12T11:55:47.865Z,38.61
2018-09-12T11:58:17.803Z,39.05
2018-09-12T12:00:47.810Z,39.07
2018-09-12T12:03:17.430Z,37.06
2018-09-12T12:05:46.727Z,37.11
2018-09-12T12:08:16.627Z,38.05
2018-09-12T12:10:45.851Z,37.00
2018-09-12T12:13:15.381Z,34.53
2018-09-12T12:15:44.781Z,35.90
2018-09-12T12:18:14.182Z,36.06
2018-09-12T12:20:43.423Z,34.30
2018-09-12T12:23:12.806Z,38.14
2018-09-12T12:25:42.467Z,38.88
2018-09-12T12:28:12.172Z,35.80
2018-09-12T12:30:41.984Z,36.88
2018-09-12T12:33:11.641Z,38.37
2018-09-12T12:35:41.145Z,38.56
2018-09-12T12:38:10.413Z,39.96
2018-09-12T12:40:39.978Z,41.76
2018-09-12T12:43:09.496Z,41.90
2018-09-12T12:45:38.967Z,44.36
2018-09-12T12:48:08.509Z,44.52
2018-09-12T12:50:37.776Z,44.17
2018-09-12T12:53:07.679Z,44.93
2018-09-12T12:55:37.248Z,45.18
2018-09-12T12:58:06.711Z,44.51
2018-09-12T13:00:36.437Z,45.23
2018-09-12T13:03:06.522Z,45.52
2018-09-12T13:05:36.065Z,44.12
2018-09-12T13:08:06.089Z,44.14
2018-09-12T13:10:36.303Z,43.34
2018-09-12T13:13:05.994Z,43.86
2018-09-12T13:15:42.260Z,43.68
2018-09-12T13:18:11.542Z,44.02
2018-09-12T13:20:41.008Z,43.68
2018-09-12T13:23:10.465Z,43.97
2018-09-12T13:25:39.932Z,43.39
2018-09-12T13:28:09.796Z,43.35
2018-09-12T13:30:45.589Z,43.34
2018-09-12T13:33:14.848Z,42.61
2018-09-12T13:35:45.044Z,42.86
2018-09-12T13:38:15.320Z,43.82
2018-09-12T13:40:46.356Z,42.82
2018-09-12T13:43:15.997Z,43.42
2018-09-12T13:45:47.667Z,42.24
2018-09-12T13:48:19.205Z,43.41
2018-09-12T13:50:48.521Z,42.88
2018-09-12T13:53:18.584Z,41.36
2018-09-12T13:55:48.050Z,42.70
2018-09-12T13:58:17.783Z,43.61
2018-09-12T14:00:47.902Z,43.68
2018-09-12T14:03:17.392Z,41.95
2018-09-12T14:05:47.412Z,43.13
2018-09-12T14:08:16.670Z,45.22
2018-09-12T14:10:46.558Z,43.52
2018-09-12T14:13:16.007Z,44.53
2018-09-12T14:15:45.542Z,43.51
2018-09-12T14:18:15.163Z,44.65
2018-09-12T14:20:44.717Z,44.09
2018-09-12T14:23:14.246Z,44.07
2018-09-12T14:25:43.765Z,43.94
2018-09-12T14:28:13.259Z,42.90
2018-09-12T14:30:42.736Z,43.92
2018-09-12T14:33:12.891Z,43.13
2018-09-12T14:35:42.879Z,43.51
2018-09-12T14:38:12.510Z,43.51
2018-09-12T14:40:42.163Z,44.53
2018-09-12T14:43:12.766Z,44.68
2018-09-12T14:45:42.051Z,44.69
2018-09-12T14:48:12.301Z,43.81
2018-09-12T14:50:42.227Z,44.54
2018-09-12T14:53:12.103Z,45.04
2018-09-12T14:55:41.358Z,44.64
2018-09-12T14:58:11.310Z,45.50
2018-09-12T15:00:40.547Z,45.47
2018-09-12T15:03:09.795Z,45.23
2018-09-12T15:05:39.722Z,44.35
2018-09-12T15:08:08.981Z,45.14
2018-09-12T15:10:38.578Z,44.78
2018-09-12T15:13:08.282Z,45.23
2018-09-12T15:15:38.659Z,48.38
2018-09-12T15:18:08.560Z,51.68
2018-09-12T15:20:37.975Z,51.86
2018-09-12T15:23:07.948Z,53.53
2018-09-12T15:25:37.380Z,53.76
2018-09-12T15:28:06.627Z,56.21
2018-09-12T15:30:36.186Z,57.99
2018-09-12T15:33:05.942Z,59.53
2018-09-12T15:35:35.270Z,61.16
2018-09-12T15:38:05.117Z,61.41
2018-09-12T15:40:34.643Z,60.49
2018-09-12T15:43:04.786Z,62.94
2018-09-12T15:45:34.238Z,64.06
2018-09-12T15:48:03.671Z,64.32
2018-09-12T15:50:33.620Z,63.59
2018-09-12T15:53:03.612Z,63.74
2018-09-12T15:55:33.743Z,65.91
2018-09-12T15:58:03.284Z,66.75
2018-09-12T16:00:32.860Z,68.24
2018-09-12T16:03:02.232Z,69.39
2018-09-12T16:05:31.732Z,69.25
2018-09-12T16:08:01.861Z,68.54
2018-09-12T16:10:31.555Z,70.16
2018-09-12T16:13:00.803Z,70.79
2018-09-12T16:15:30.434Z,70.45
2018-09-12T16:18:00.401Z,71.26
2018-09-12T16:20:29.827Z,72.12
2018-09-12T16:25:27.366Z,73.84
2018-09-12T16:27:56.918Z,74.36
2018-09-12T16:30:26.995Z,74.71
2018-09-12T16:32:56.350Z,73.76
2018-09-12T16:35:25.766Z,75.39
2018-09-12T16:37:55.325Z,75.12
2018-09-12T16:40:25.026Z,75.28
2018-09-12T16:42:54.648Z,76.17
2018-09-12T16:45:23.954Z,77.85
2018-09-12T16:47:53.491Z,78.37
2018-09-12T16:50:23.738Z,79.86
2018-09-12T16:52:53.571Z,79.71
2018-09-12T16:55:24.139Z,79.36
2018-09-12T16:57:54.242Z,79.00
2018-09-12T17:00:23.935Z,79.74
2018-09-12T17:02:53.819Z,79.95
2018-09-12T17:05:23.599Z,79.26
2018-09-12T17:07:53.239Z,80.09
2018-09-12T17:10:22.762Z,80.79
2018-09-12T17:12:52.045Z,80.50
2018-09-12T17:15:21.730Z,80.80
2018-09-12T17:17:51.250Z,81.58
2018-09-12T17:20:21.436Z,81.15
2018-09-12T17:22:50.692Z,81.47
2018-09-12T17:25:20.617Z,80.75
2018-09-12T17:27:50.306Z,81.58
2018-09-12T17:30:19.767Z,81.98
2018-09-12T17:32:49.307Z,83.00
2018-09-12T17:35:19.209Z,82.31
2018-09-12T17:37:48.748Z,82.82
2018-09-12T17:40:18.210Z,83.07
2018-09-12T17:42:48.196Z,82.61
2018-09-12T17:45:17.632Z,83.37
2018-09-12T17:47:47.248Z,83.44
2018-09-12T17:50:16.565Z,83.87
2018-09-12T17:52:45.835Z,84.23
2018-09-12T17:55:15.654Z,84.78
2018-09-12T17:57:45.203Z,85.59
2018-09-12T18:00:15.267Z,84.95
2018-09-12T18:02:44.833Z,85.61
2018-09-12T18:05:14.318Z,85.99
2018-09-12T18:07:43.815Z,84.80
2018-09-12T18:10:13.027Z,85.38
2018-09-12T18:12:42.421Z,85.55
2018-09-12T18:15:11.708Z,86.26
2018-09-12T18:17:41.561Z,86.18
2018-09-12T18:20:11.396Z,87.18
2018-09-12T18:22:41.471Z,87.09
2018-09-12T18:25:11.174Z,85.85
2018-09-12T18:27:40.704Z,87.50
2018-09-12T18:30:11.330Z,87.16
2018-09-12T18:32:40.556Z,86.84
2018-09-12T18:35:10.459Z,87.43
2018-09-12T18:37:39.879Z,87.32
2018-09-12T18:40:09.453Z,87.40
2018-09-12T18:42:38.878Z,87.70
2018-09-12T18:45:08.442Z,87.53
2018-09-12T18:47:37.695Z,88.02
2018-09-12T18:50:07.900Z,88.58
2018-09-12T18:52:37.754Z,88.12
2018-09-12T18:55:07.774Z,88.35
2018-09-12T18:57:38.398Z,87.92
2018-09-12T19:00:07.967Z,87.97
2018-09-12T19:02:37.520Z,88.80
2018-09-12T19:05:07.564Z,89.10
2018-09-12T19:07:36.893Z,88.83
2018-09-12T19:10:06.403Z,88.83
2018-09-12T19:12:36.701Z,88.77
2018-09-12T19:15:06.434Z,89.20
2018-09-12T19:17:35.942Z,88.37
2018-09-12T19:20:05.539Z,89.47
2018-09-12T19:22:35.602Z,88.77
2018-09-12T19:25:05.483Z,88.56
2018-09-12T19:27:35.124Z,88.86
2018-09-12T19:30:05.753Z,88.85
2018-09-12T19:32:35.185Z,89.02
2018-09-12T19:35:05.526Z,88.60
2018-09-12T19:37:35.243Z,89.55
2018-09-12T19:40:04.756Z,89.37
2018-09-12T19:42:34.235Z,88.91
2018-09-12T19:45:04.539Z,88.65
2018-09-12T19:47:34.451Z,89.26
2018-09-12T19:50:03.975Z,88.26
2018-09-12T19:52:34.054Z,88.27
2018-09-12T19:55:04.126Z,87.87
2018-09-12T19:57:33.704Z,87.52
2018-09-12T20:00:03.651Z,88.00
2018-09-12T20:02:34.638Z,87.90
2018-09-12T20:05:04.064Z,88.42
2018-09-12T20:07:34.176Z,87.75
2018-09-12T20:10:04.045Z,87.57
2018-09-12T20:12:33.623Z,87.39
2018-09-12T20:15:03.275Z,87.96
2018-09-12T20:17:33.046Z,87.89
2018-09-12T20:20:02.538Z,87.44
2018-09-12T20:22:32.410Z,87.64
2018-09-12T20:25:01.980Z,88.21
2018-09-12T20:27:31.719Z,87.41
2018-09-12T20:30:01.257Z,88.86
2018-09-12T20:32:31.941Z,88.00
2018-09-12T20:35:01.440Z,88.45
2018-09-12T20:37:30.893Z,87.62
2018-09-12T20:40:00.667Z,87.27
2018-09-12T20:42:30.144Z,88.27
2018-09-12T20:45:00.088Z,88.61
2018-09-12T20:47:29.651Z,88.83
2018-09-12T20:49:59.701Z,88.16
2018-09-12T20:52:30.206Z,88.62
2018-09-12T20:54:59.498Z,88.59
2018-09-12T20:57:29.262Z,88.68
2018-09-12T20:59:58.698Z,88.43
2018-09-12T21:02:28.377Z,88.52
2018-09-12T21:04:57.935Z,88.92
2018-09-12T21:07:27.619Z,88.52
2018-09-12T21:09:57.533Z,87.84
2018-09-12T21:12:27.240Z,88.93
2018-09-12T21:14:57.903Z,88.99
2018-09-12T21:17:27.660Z,88.58
2018-09-12T21:19:57.449Z,88.88
2018-09-12T21:22:27.330Z,89.61
2018-09-12T21:24:56.995Z,89.85
2018-09-12T21:27:26.934Z,89.75
2018-09-12T21:29:57.247Z,89.76
2018-09-12T21:32:26.631Z,89.24
2018-09-12T21:34:57.080Z,89.62
2018-09-12T21:37:27.746Z,89.46
2018-09-12T21:39:57.560Z,90.21
2018-09-12T21:42:26.824Z,90.60
2018-09-12T21:44:56.331Z,90.56
2018-09-12T21:47:26.096Z,90.64
2018-09-12T21:49:55.371Z,89.99
2018-09-12T21:52:24.841Z,90.48
2018-09-12T21:54:54.333Z,90.78
2018-09-12T21:57:23.651Z,90.94
2018-09-12T21:59:52.918Z,90.57
2018-09-12T22:02:22.474Z,91.26
2018-09-12T22:04:51.955Z,90.90
2018-09-12T22:07:21.686Z,90.84
2018-09-12T22:09:51.607Z,90.02
2018-09-12T22:12:21.109Z,89.82
2018-09-12T22:14:51.074Z,89.36
2018-09-12T22:17:20.287Z,89.03
2018-09-12T22:19:50.466Z,89.77
2018-09-12T22:22:20.587Z,90.35
2018-09-12T22:24:50.558Z,89.37
2018-09-12T22:27:20.167Z,89.26
2018-09-12T22:29:49.433Z,89.26
2018-09-12T22:32:18.978Z,89.45
2018-09-12T22:34:48.268Z,89.50
2018-09-12T22:37:17.753Z,88.72
2018-09-12T22:39:47.280Z,89.47
2018-09-12T22:42:17.241Z,90.35
2018-09-12T22:44:46.726Z,89.79
2018-09-12T22:47:16.189Z,89.80
2018-09-12T22:49:45.951Z,89.76
2018-09-12T22:52:15.431Z,90.07
2018-09-12T22:54:44.984Z,90.28
2018-09-12T22:57:14.415Z,90.44
2018-09-12T22:59:44.413Z,90.15
2018-09-12T23:02:14.280Z,90.26
2018-09-12T23:04:44.739Z,90.55
2018-09-12T23:07:15.364Z,89.27
2018-09-12T23:09:45.721Z,90.22
2018-09-12T23:12:15.978Z,90.06
2018-09-12T23:14:45.622Z,90.64
2018-09-12T23:17:15.225Z,90.36
2018-09-12T23:19:45.569Z,89.52
2018-09-12T23:22:15.206Z,89.21
2018-09-12T23:24:44.707Z,88.85
2018-09-12T23:27:14.211Z,88.85
2018-09-12T23:29:43.991Z,89.19
2018-09-12T23:32:14.464Z,90.45
2018-09-12T23:34:44.138Z,89.72
2018-09-12T23:37:13.685Z,89.85
2018-09-12T23:39:43.947Z,89.18
2018-09-12T23:42:14.425Z,89.80
2018-09-12T23:44:44.055Z,89.58
2018-09-12T23:47:13.553Z,89.16
2018-09-12T23:49:43.020Z,90.19
2018-09-12T23:52:12.616Z,90.13
2018-09-12T23:54:42.204Z,89.66
2018-09-12T23:57:11.552Z,90.39
2018-09-12T23:59:41.055Z,90.02
